Mountain View, WY

2:33 AM MDT on August 31, 2014 (GMT -0600)
KWYMOUNT2 | Change Station
CLOSE
Current Station
Personal Weather Station
Location: Mountain View, WY
Elevation: 7112 ft
Nearby Weather Stations

Elev 7112 ft 41.23 °N, 110.37 °W | Updated 3 minutes ago

Overcast
Overcast
55.9 °F
Feels Like 55.9 °F
N
10.0
Wind Variable Wind from NW

Today
High -- | Low -- °F
--% Chance of Precip.
Yesterday
High -- | Low -- °F
Precip. -- in
6:47 AM 7:55 PM
Waxing Crescent, 29% visible
Pressure 30.04 in
Visibility -9999.0 miles
Clouds Mostly Cloudy 9000 ft
Dew Point 43 °F
Humidity 62%
Rainfall 0.00 in
Snow Depth Not available.
UV 0 out of 12
Pollen 8.60 out of 12
Air Quality Not available.
Flu Activity Not available.
METAR KFBR 310815Z AUTO 31007KT BKN090 14/06 A3004 RMK AO2 T01420062 PWINO

More Conditions Fewer Conditions

Pressure 30.04 in
Visibility -9999.0 miles
Clouds Mostly Cloudy 9000 ft
Dew Point 43 °F
Humidity 62%
Rainfall 0.00 in
Snow Depth Not available.
UV 0 out of 12
Pollen 8.60 out of 12
Air Quality Not available.
Flu Activity Not available.
METAR KFBR 310815Z AUTO 31007KT BKN090 14/06 A3004 RMK AO2 T01420062 PWINO

More Conditions Fewer Conditions

10-Day Weather Forecast

Almanac

Astronomy

Aug. 31, 2014 Rise Set
Actual Time 6:47 AM MDT 7:55 PM MDT
Civil Twilight 6:18 AM MDT 8:24 PM MDT
Nautical Twilight 5:44 AM MDT 8:57 PM MDT
Astronomical Twilight 5:09 AM MDT 9:33 PM MDT
Moon 12:40 PM MDT 11:09 PM MDT
Length of Visible Light 14h 05m
Length of Day
13h 08m
Tomorrow will be 2m 38s shorter.
Waxing Crescent, 29% of the Moon is Illuminated
Today
Waxing Crescent
Sep 2
First Quarter
Sep 8
Full
Sep 15
Last Quarter
Sep 24
New

Today's Extremes

State Highs State Lows

Community

WunderPhotos

Upload Photos

1,748,826 photos uploaded!

Nearby

Snow Depth

Station Depth Elevation
Hams Fork 0 in 7840 ft
Kelley R.S. 0 in 8180 ft
Salt River Summit 1 in 7600 ft
Big Sandy Opening 0 in 9080 ft
Blind Bull Summit 2 in 8900 ft

Earthquake Activity

City Distance Mag. Time & Date
No recent earthquake activity has been reported nearby.
Minimum magnitude displayed is 2.5.

Coastal Water Temperatures

Place Temperature
No Stations Reporting

Nearby Weather Stations